sensor_id;sensor_type;location;lat;lon;timestamp;P1;durP1;ratioP1;P2;durP2;ratioP2
12980;SDS011;6555;50.468;8.480;2023-08-20T00:11:28;1.75;;;1.65;;
12980;SDS011;6555;50.468;8.480;2023-08-20T00:17:50;1.80;;;1.40;;
12980;SDS011;6555;50.468;8.480;2023-08-20T00:23:35;1.58;;;1.48;;
12980;SDS011;6555;50.468;8.480;2023-08-20T00:29:14;1.63;;;1.52;;
12980;SDS011;6555;50.468;8.480;2023-08-20T00:46:22;1.67;;;1.58;;
12980;SDS011;6555;50.468;8.480;2023-08-20T00:58:52;1.50;;;1.40;;
12980;SDS011;6555;50.468;8.480;2023-08-20T01:10:13;2.33;;;1.65;;
12980;SDS011;6555;50.468;8.480;2023-08-20T01:22:11;2.75;;;1.60;;
12980;SDS011;6555;50.468;8.480;2023-08-20T01:28:28;1.70;;;1.60;;
12980;SDS011;6555;50.468;8.480;2023-08-20T01:34:20;1.70;;;1.60;;
12980;SDS011;6555;50.468;8.480;2023-08-20T01:40:16;2.30;;;2.03;;
12980;SDS011;6555;50.468;8.480;2023-08-20T01:45:57;1.55;;;1.40;;
12980;SDS011;6555;50.468;8.480;2023-08-20T01:51:54;3.97;;;1.60;;
12980;SDS011;6555;50.468;8.480;2023-08-20T01:58:22;1.63;;;1.52;;
12980;SDS011;6555;50.468;8.480;2023-08-20T02:04:41;1.60;;;1.50;;
12980;SDS011;6555;50.468;8.480;2023-08-20T02:17:23;1.55;;;1.45;;
12980;SDS011;6555;50.468;8.480;2023-08-20T02:30:29;1.60;;;1.50;;
12980;SDS011;6555;50.468;8.480;2023-08-20T02:42:37;2.05;;;1.70;;
12980;SDS011;6555;50.468;8.480;2023-08-20T02:48:49;1.90;;;1.50;;
12980;SDS011;6555;50.468;8.480;2023-08-20T02:54:38;1.90;;;1.50;;
12980;SDS011;6555;50.468;8.480;2023-08-20T03:00:42;1.40;;;1.30;;
12980;SDS011;6555;50.468;8.480;2023-08-20T03:12:47;1.60;;;1.50;;
12980;SDS011;6555;50.468;8.480;2023-08-20T03:25:09;1.50;;;1.40;;
12980;SDS011;6555;50.468;8.480;2023-08-20T03:30:45;3.15;;;2.08;;
12980;SDS011;6555;50.468;8.480;2023-08-20T03:37:03;2.42;;;1.30;;
12980;SDS011;6555;50.468;8.480;2023-08-20T03:43:04;1.60;;;1.23;;
12980;SDS011;6555;50.468;8.480;2023-08-20T03:48:49;1.25;;;1.15;;
12980;SDS011;6555;50.468;8.480;2023-08-20T03:54:42;1.80;;;1.30;;
12980;SDS011;6555;50.468;8.480;2023-08-20T04:00:31;1.38;;;1.27;;
12980;SDS011;6555;50.468;8.480;2023-08-20T04:06:14;1.05;;;1.05;;
12980;SDS011;6555;50.468;8.480;2023-08-20T04:11:44;1.02;;;1.02;;
12980;SDS011;6555;50.468;8.480;2023-08-20T04:16:58;1.25;;;1.15;;
12980;SDS011;6555;50.468;8.480;2023-08-20T04:22:20;1.05;;;1.05;;
12980;SDS011;6555;50.468;8.480;2023-08-20T04:27:50;1.58;;;1.48;;
12980;SDS011;6555;50.468;8.480;2023-08-20T04:33:54;1.27;;;1.17;;
12980;SDS011;6555;50.468;8.480;2023-08-20T04:39:27;1.35;;;1.25;;
12980;SDS011;6555;50.468;8.480;2023-08-20T04:45:23;2.25;;;1.20;;
12980;SDS011;6555;50.468;8.480;2023-08-20T04:51:17;1.50;;;1.40;;
12980;SDS011;6555;50.468;8.480;2023-08-20T05:03:33;1.77;;;1.30;;
12980;SDS011;6555;50.468;8.480;2023-08-20T05:09:33;3.33;;;1.30;;
12980;SDS011;6555;50.468;8.480;2023-08-20T05:15:21;1.67;;;1.40;;
12980;SDS011;6555;50.468;8.480;2023-08-20T05:21:18;2.83;;;1.40;;
12980;SDS011;6555;50.468;8.480;2023-08-20T05:26:49;1.95;;;1.35;;
12980;SDS011;6555;50.468;8.480;2023-08-20T05:33:02;2.25;;;1.20;;
12980;SDS011;6555;50.468;8.480;2023-08-20T05:45:12;1.20;;;1.10;;
12980;SDS011;6555;50.468;8.480;2023-08-20T05:50:46;2.20;;;1.40;;
12980;SDS011;6555;50.468;8.480;2023-08-20T05:56:57;1.73;;;1.58;;
12980;SDS011;6555;50.468;8.480;2023-08-20T06:02:29;1.92;;;1.67;;
12980;SDS011;6555;50.468;8.480;2023-08-20T06:08:10;2.65;;;1.50;;
12980;SDS011;6555;50.468;8.480;2023-08-20T06:14:17;1.85;;;1.73;;
12980;SDS011;6555;50.468;8.480;2023-08-20T06:20:22;2.88;;;1.88;;
12980;SDS011;6555;50.468;8.480;2023-08-20T06:26:11;3.30;;;1.80;;
12980;SDS011;6555;50.468;8.480;2023-08-20T06:31:47;3.85;;;1.70;;
12980;SDS011;6555;50.468;8.480;2023-08-20T06:37:39;1.83;;;1.73;;
12980;SDS011;6555;50.468;8.480;2023-08-20T06:43:05;2.35;;;2.15;;
12980;SDS011;6555;50.468;8.480;2023-08-20T06:48:46;2.50;;;2.30;;
12980;SDS011;6555;50.468;8.480;2023-08-20T06:54:21;2.22;;;2.03;;
12980;SDS011;6555;50.468;8.480;2023-08-20T07:00:05;3.55;;;2.10;;
12980;SDS011;6555;50.468;8.480;2023-08-20T07:05:44;2.50;;;2.10;;
12980;SDS011;6555;50.468;8.480;2023-08-20T07:23:17;4.57;;;3.13;;
12980;SDS011;6555;50.468;8.480;2023-08-20T07:29:22;4.05;;;3.65;;
12980;SDS011;6555;50.468;8.480;2023-08-20T07:35:24;7.35;;;4.95;;
12980;SDS011;6555;50.468;8.480;2023-08-20T07:47:17;4.50;;;4.10;;
12980;SDS011;6555;50.468;8.480;2023-08-20T07:58:50;4.35;;;3.95;;
12980;SDS011;6555;50.468;8.480;2023-08-20T08:15:59;5.57;;;4.97;;
12980;SDS011;6555;50.468;8.480;2023-08-20T08:28:02;5.22;;;4.72;;
12980;SDS011;6555;50.468;8.480;2023-08-20T08:33:54;6.78;;;4.95;;
12980;SDS011;6555;50.468;8.480;2023-08-20T08:39:53;4.88;;;4.47;;
12980;SDS011;6555;50.468;8.480;2023-08-20T08:46:04;4.82;;;4.25;;
12980;SDS011;6555;50.468;8.480;2023-08-20T08:57:31;4.85;;;4.45;;
12980;SDS011;6555;50.468;8.480;2023-08-20T09:03:33;4.88;;;4.47;;
12980;SDS011;6555;50.468;8.480;2023-08-20T09:09:18;4.53;;;4.13;;
12980;SDS011;6555;50.468;8.480;2023-08-20T09:15:37;4.30;;;3.90;;
12980;SDS011;6555;50.468;8.480;2023-08-20T09:21:32;4.03;;;3.72;;
12980;SDS011;6555;50.468;8.480;2023-08-20T09:34:03;3.58;;;3.28;;
12980;SDS011;6555;50.468;8.480;2023-08-20T09:46:17;4.07;;;3.70;;
12980;SDS011;6555;50.468;8.480;2023-08-20T10:05:16;3.00;;;2.80;;
12980;SDS011;6555;50.468;8.480;2023-08-20T10:11:23;3.30;;;3.00;;
12980;SDS011;6555;50.468;8.480;2023-08-20T10:17:37;2.85;;;2.65;;
12980;SDS011;6555;50.468;8.480;2023-08-20T20:46:24;2.40;;;1.40;;
12980;SDS011;6555;50.468;8.480;2023-08-20T20:52:28;1.55;;;1.23;;
12980;SDS011;6555;50.468;8.480;2023-08-20T21:17:17;2.47;;;1.38;;
12980;SDS011;6555;50.468;8.480;2023-08-20T21:29:32;2.92;;;1.38;;
12980;SDS011;6555;50.468;8.480;2023-08-20T21:40:39;1.73;;;1.30;;
12980;SDS011;6555;50.468;8.480;2023-08-20T21:46:08;1.20;;;1.10;;
12980;SDS011;6555;50.468;8.480;2023-08-20T21:52:00;1.17;;;1.10;;
12980;SDS011;6555;50.468;8.480;2023-08-20T22:03:24;1.75;;;1.40;;
12980;SDS011;6555;50.468;8.480;2023-08-20T22:09:38;2.65;;;1.27;;
12980;SDS011;6555;50.468;8.480;2023-08-20T22:27:52;1.67;;;1.48;;
12980;SDS011;6555;50.468;8.480;2023-08-20T22:33:25;1.52;;;1.42;;
12980;SDS011;6555;50.468;8.480;2023-08-20T22:38:55;3.28;;;1.40;;
12980;SDS011;6555;50.468;8.480;2023-08-20T22:44:17;3.10;;;1.60;;
12980;SDS011;6555;50.468;8.480;2023-08-20T22:50:01;1.40;;;1.30;;
12980;SDS011;6555;50.468;8.480;2023-08-20T22:55:26;1.60;;;1.50;;
12980;SDS011;6555;50.468;8.480;2023-08-20T23:00:55;2.05;;;1.38;;
12980;SDS011;6555;50.468;8.480;2023-08-20T23:06:23;2.67;;;1.25;;
12980;SDS011;6555;50.468;8.480;2023-08-20T23:12:10;1.60;;;1.50;;
12980;SDS011;6555;50.468;8.480;2023-08-20T23:18:07;1.45;;;1.35;;
12980;SDS011;6555;50.468;8.480;2023-08-20T23:24:08;1.70;;;1.60;;
12980;SDS011;6555;50.468;8.480;2023-08-20T23:29:54;1.85;;;1.75;;
12980;SDS011;6555;50.468;8.480;2023-08-20T23:35:23;2.00;;;1.80;;
12980;SDS011;6555;50.468;8.480;2023-08-20T23:41:03;1.83;;;1.73;;
12980;SDS011;6555;50.468;8.480;2023-08-20T23:46:47;2.67;;;1.83;;
12980;SDS011;6555;50.468;8.480;2023-08-20T23:52:08;1.80;;;1.70;;
12980;SDS011;6555;50.468;8.480;2023-08-20T23:57:26;1.60;;;1.50;;
